createdAt,value
2024-01-09T00:02:17.757Z,-13.71
2024-01-09T00:04:44.278Z,-13.76
2024-01-09T00:07:10.841Z,-13.74
2024-01-09T00:09:37.671Z,-13.76
2024-01-09T00:12:04.572Z,-13.76
2024-01-09T00:14:31.169Z,-13.75
2024-01-09T00:16:57.692Z,-13.76
2024-01-09T00:19:24.267Z,-13.75
2024-01-09T00:21:51.878Z,-13.78
2024-01-09T00:24:18.400Z,-13.81
2024-01-09T00:26:45.592Z,-13.82
2024-01-09T00:29:12.456Z,-13.82
2024-01-09T00:31:39.110Z,-13.82
2024-01-09T00:34:05.757Z,-13.80
2024-01-09T00:36:32.344Z,-13.76
2024-01-09T00:38:58.935Z,-13.72
2024-01-09T00:41:25.498Z,-13.75
2024-01-09T00:43:52.151Z,-13.73
2024-01-09T00:46:18.777Z,-13.65
2024-01-09T00:48:45.526Z,-13.65
2024-01-09T00:51:12.229Z,-13.62
2024-01-09T00:53:38.801Z,-13.63
2024-01-09T00:56:06.151Z,-13.67
2024-01-09T00:58:32.748Z,-13.71
2024-01-09T01:01:00.241Z,-13.73
2024-01-09T01:03:26.994Z,-13.74
2024-01-09T01:05:53.718Z,-13.72
2024-01-09T01:08:20.211Z,-13.69
2024-01-09T01:10:46.791Z,-13.70
2024-01-09T01:13:13.390Z,-13.71
2024-01-09T01:15:39.889Z,-13.72
2024-01-09T01:18:06.572Z,-13.71
2024-01-09T01:20:33.566Z,-13.72
2024-01-09T01:23:00.168Z,-13.71
2024-01-09T01:25:26.917Z,-13.68
2024-01-09T01:27:53.887Z,-13.71
2024-01-09T01:30:20.518Z,-13.69
2024-01-09T01:32:47.281Z,-13.75
2024-01-09T01:35:13.926Z,-13.71
2024-01-09T01:37:40.587Z,-13.72
2024-01-09T01:40:07.745Z,-13.75
2024-01-09T01:42:34.235Z,-13.79
2024-01-09T01:45:00.750Z,-13.77
2024-01-09T01:47:27.712Z,-13.83
2024-01-09T01:49:55.061Z,-13.89
2024-01-09T01:52:21.585Z,-13.89
2024-01-09T01:54:48.296Z,-13.91
2024-01-09T01:57:15.745Z,-13.94
2024-01-09T01:59:46.639Z,-13.94
2024-01-09T02:02:15.143Z,-13.94
2024-01-09T02:04:42.263Z,-13.97
2024-01-09T02:07:09.042Z,-14.04
2024-01-09T02:09:37.514Z,-14.00
2024-01-09T02:12:05.320Z,-14.01
2024-01-09T02:14:31.970Z,-14.03
2024-01-09T02:16:58.714Z,-14.03
2024-01-09T02:19:25.365Z,-14.04
2024-01-09T02:21:52.396Z,-14.06
2024-01-09T02:24:19.641Z,-14.00
2024-01-09T02:26:59.970Z,-14.01
2024-01-09T02:29:34.118Z,-14.00
2024-01-09T02:32:01.350Z,-14.03
2024-01-09T02:34:30.591Z,-14.06
2024-01-09T02:36:57.369Z,-14.08
2024-01-09T02:39:23.862Z,-14.14
2024-01-09T02:41:51.987Z,-14.12
2024-01-09T02:44:19.638Z,-14.14
2024-01-09T02:46:46.204Z,-14.16
2024-01-09T02:49:12.867Z,-14.18
2024-01-09T02:51:39.503Z,-14.19
2024-01-09T02:54:06.202Z,-14.17
2024-01-09T02:56:35.033Z,-14.20
2024-01-09T02:59:01.579Z,-14.20
2024-01-09T03:01:28.144Z,-14.20
2024-01-09T03:03:54.807Z,-14.18
2024-01-09T03:06:21.748Z,-14.20
2024-01-09T03:08:51.231Z,-14.17
2024-01-09T03:11:18.045Z,-14.16
2024-01-09T03:13:44.626Z,-14.18
2024-01-09T03:16:14.960Z,-14.17
2024-01-09T03:18:44.977Z,-14.18
2024-01-09T03:21:12.401Z,-14.15
2024-01-09T03:23:39.098Z,-14.18
2024-01-09T03:26:05.683Z,-14.14
2024-01-09T03:28:32.283Z,-14.16
2024-01-09T03:30:58.818Z,-14.24
2024-01-09T03:33:25.458Z,-14.24
2024-01-09T03:35:52.128Z,-14.25
2024-01-09T03:38:18.671Z,-14.30
2024-01-09T03:40:45.388Z,-14.34
2024-01-09T03:43:11.913Z,-14.36
2024-01-09T03:45:38.554Z,-14.39
2024-01-09T03:48:05.582Z,-14.38
2024-01-09T03:50:32.225Z,-14.39
2024-01-09T03:52:58.711Z,-14.37
2024-01-09T03:55:26.432Z,-14.36
2024-01-09T03:57:52.916Z,-14.36
2024-01-09T04:00:19.569Z,-14.34
2024-01-09T04:02:46.251Z,-14.34
2024-01-09T04:05:12.910Z,-14.39
2024-01-09T04:07:39.540Z,-14.40
2024-01-09T04:10:06.347Z,-14.41
2024-01-09T04:12:32.896Z,-14.38
2024-01-09T04:14:59.517Z,-14.38
2024-01-09T04:17:26.303Z,-14.41
2024-01-09T04:19:52.828Z,-14.42
2024-01-09T04:22:19.371Z,-14.44
2024-01-09T04:24:45.855Z,-14.44
2024-01-09T04:27:12.410Z,-14.45
2024-01-09T04:29:38.916Z,-14.46
2024-01-09T04:32:05.595Z,-14.44
2024-01-09T04:34:32.187Z,-14.44
2024-01-09T04:36:58.766Z,-14.44
2024-01-09T04:39:25.307Z,-14.46
2024-01-09T04:41:51.856Z,-14.48
2024-01-09T04:44:18.377Z,-14.51
2024-01-09T04:46:44.939Z,-14.53
2024-01-09T04:49:11.582Z,-14.53
2024-01-09T04:51:38.410Z,-14.56
2024-01-09T04:54:04.944Z,-14.56
2024-01-09T04:56:31.456Z,-14.56
2024-01-09T04:58:58.037Z,-14.59
2024-01-09T05:01:24.681Z,-14.58
2024-01-09T05:03:52.111Z,-14.62
2024-01-09T05:06:19.868Z,-14.59
2024-01-09T05:08:48.171Z,-14.60
2024-01-09T05:11:18.882Z,-14.61
2024-01-09T05:13:46.412Z,-14.63
2024-01-09T05:16:12.916Z,-14.63
2024-01-09T05:18:39.510Z,-14.67
2024-01-09T05:21:06.148Z,-14.62
2024-01-09T05:23:32.782Z,-14.64
2024-01-09T05:25:59.436Z,-14.64
2024-01-09T05:28:26.002Z,-14.63
2024-01-09T05:30:52.582Z,-14.64
2024-01-09T05:33:19.870Z,-14.63
2024-01-09T05:35:46.654Z,-14.65
2024-01-09T05:38:18.630Z,-14.61
2024-01-09T05:40:49.066Z,-14.58
2024-01-09T05:43:15.656Z,-14.59
2024-01-09T05:45:42.188Z,-14.57
2024-01-09T05:48:09.180Z,-14.57
2024-01-09T05:50:36.105Z,-14.58
2024-01-09T05:53:03.469Z,-14.59
2024-01-09T05:55:30.139Z,-14.60
2024-01-09T05:57:56.699Z,-14.61
2024-01-09T06:00:23.344Z,-14.61
2024-01-09T06:02:49.930Z,-14.62
2024-01-09T06:05:16.583Z,-14.61
2024-01-09T06:07:43.141Z,-14.60
2024-01-09T06:10:10.219Z,-14.59
2024-01-09T06:12:36.833Z,-14.57
2024-01-09T06:15:04.639Z,-14.54
2024-01-09T06:17:31.394Z,-14.52
2024-01-09T06:19:58.903Z,-14.46
2024-01-09T06:22:25.557Z,-14.47
2024-01-09T06:24:52.155Z,-14.45
2024-01-09T06:27:18.712Z,-14.44
2024-01-09T06:29:45.379Z,-14.44
2024-01-09T06:32:12.125Z,-14.43
2024-01-09T06:34:38.745Z,-14.43
2024-01-09T06:37:05.410Z,-14.43
2024-01-09T06:39:31.988Z,-14.41
2024-01-09T06:41:58.628Z,-14.38
2024-01-09T06:44:25.271Z,-14.28
2024-01-09T06:46:51.867Z,-14.21
2024-01-09T06:49:18.424Z,-14.23
2024-01-09T06:51:45.421Z,-14.25
2024-01-09T06:54:12.082Z,-14.26
2024-01-09T06:56:45.271Z,-14.24
2024-01-09T06:59:12.278Z,-14.22
2024-01-09T07:01:39.590Z,-14.19
2024-01-09T07:04:10.007Z,-14.13
2024-01-09T07:06:36.754Z,-14.12
2024-01-09T07:09:04.119Z,-14.12
2024-01-09T07:11:30.880Z,-14.06
2024-01-09T07:13:57.518Z,-14.03
2024-01-09T07:16:24.256Z,-14.00
2024-01-09T07:18:50.951Z,-13.97
2024-01-09T07:21:17.542Z,-13.96
2024-01-09T07:23:45.586Z,-13.94
2024-01-09T07:26:12.194Z,-13.90
2024-01-09T07:28:39.552Z,-13.91
2024-01-09T07:31:06.254Z,-13.88
2024-01-09T07:33:32.941Z,-13.85
2024-01-09T07:36:05.260Z,-13.83
2024-01-09T07:38:31.891Z,-13.80
2024-01-09T07:41:00.772Z,-13.74
2024-01-09T07:43:27.938Z,-13.63
2024-01-09T07:45:54.486Z,-13.56
2024-01-09T07:48:21.864Z,-13.48
2024-01-09T07:50:48.422Z,-13.37
2024-01-09T07:53:15.101Z,-13.31
2024-01-09T07:55:41.625Z,-13.22
2024-01-09T07:58:08.163Z,-13.13
2024-01-09T08:00:34.965Z,-13.05
2024-01-09T08:03:04.697Z,-12.91
2024-01-09T08:05:31.453Z,-12.84
2024-01-09T08:07:58.015Z,-12.77
2024-01-09T08:10:24.529Z,-12.72
2024-01-09T08:12:51.080Z,-12.69
2024-01-09T08:15:17.736Z,-12.63
2024-01-09T08:17:44.477Z,-12.56
2024-01-09T08:20:11.415Z,-12.48
2024-01-09T08:22:38.277Z,-12.37
2024-01-09T08:25:05.928Z,-12.28
2024-01-09T08:27:32.565Z,-12.22
2024-01-09T08:29:59.172Z,-12.15
2024-01-09T08:32:26.498Z,-12.09
2024-01-09T08:34:53.336Z,-11.99
2024-01-09T08:37:20.523Z,-11.90
2024-01-09T08:39:47.026Z,-11.84
2024-01-09T08:42:13.604Z,-11.74
2024-01-09T08:44:40.225Z,-11.61
2024-01-09T08:47:06.858Z,-11.59
2024-01-09T08:49:33.434Z,-11.51
2024-01-09T08:52:00.173Z,-11.46
2024-01-09T08:54:26.740Z,-11.31
2024-01-09T08:56:53.376Z,-11.21
2024-01-09T08:59:19.907Z,-11.14
2024-01-09T09:01:46.421Z,-11.04
2024-01-09T09:04:13.036Z,-10.90
2024-01-09T09:06:39.737Z,-10.83
2024-01-09T09:09:06.412Z,-10.81
2024-01-09T09:11:34.107Z,-10.81
2024-01-09T09:14:00.936Z,-10.76
2024-01-09T09:16:30.698Z,-10.62
2024-01-09T09:18:57.526Z,-10.60
2024-01-09T09:21:24.379Z,-10.57
2024-01-09T09:23:50.986Z,-10.50
2024-01-09T09:26:17.776Z,-10.42
2024-01-09T09:28:59.631Z,-10.41
2024-01-09T09:31:30.796Z,-10.36
2024-01-09T09:33:57.804Z,-10.22
2024-01-09T09:36:25.085Z,-10.15
2024-01-09T09:38:54.726Z,-10.01
2024-01-09T09:41:21.784Z,-9.93
2024-01-09T09:43:51.948Z,-9.81
2024-01-09T09:46:25.137Z,-9.70
2024-01-09T09:48:54.101Z,-9.61
2024-01-09T09:51:23.400Z,-9.51
2024-01-09T09:53:53.993Z,-9.41
2024-01-09T09:56:21.047Z,-9.37
2024-01-09T09:58:47.626Z,-9.30
2024-01-09T10:01:15.304Z,-9.23
2024-01-09T10:03:58.154Z,-9.11
2024-01-09T10:06:26.468Z,-9.04
2024-01-09T10:08:55.647Z,-8.97
2024-01-09T10:11:22.431Z,-8.91
2024-01-09T10:13:49.920Z,-8.87
2024-01-09T10:16:16.422Z,-8.91
2024-01-09T10:18:43.117Z,-8.83
2024-01-09T10:21:09.933Z,-8.77
2024-01-09T10:23:39.560Z,-8.64
2024-01-09T10:26:11.185Z,-8.69
2024-01-09T10:28:38.104Z,-8.66
2024-01-09T10:31:07.749Z,-8.61
2024-01-09T10:33:34.860Z,-8.64
2024-01-09T10:36:01.638Z,-8.61
2024-01-09T10:38:28.338Z,-8.48
2024-01-09T10:40:57.633Z,-8.35
2024-01-09T10:43:28.032Z,-8.24
2024-01-09T10:45:54.890Z,-8.19
2024-01-09T10:48:22.801Z,-8.11
2024-01-09T10:50:52.471Z,-8.08
2024-01-09T10:53:21.384Z,-7.99
2024-01-09T10:55:50.436Z,-7.94
2024-01-09T10:58:18.257Z,-7.80
2024-01-09T11:00:45.966Z,-7.72
2024-01-09T11:03:12.812Z,-7.69
2024-01-09T11:05:39.952Z,-7.60
2024-01-09T11:08:11.642Z,-7.54
2024-01-09T11:10:39.039Z,-7.51
2024-01-09T11:13:07.826Z,-7.44
2024-01-09T11:15:39.246Z,-7.38
2024-01-09T11:18:10.082Z,-7.29
2024-01-09T11:20:36.827Z,-7.24
2024-01-09T11:23:03.478Z,-7.33
2024-01-09T11:25:35.032Z,-7.31
2024-01-09T11:28:01.739Z,-7.23
2024-01-09T11:30:34.512Z,-7.14
2024-01-09T11:33:33.255Z,-7.08
2024-01-09T11:36:07.230Z,-6.99
2024-01-09T11:38:34.752Z,-6.98
2024-01-09T11:41:08.412Z,-6.85
2024-01-09T11:44:00.260Z,-6.78
2024-01-09T11:46:29.078Z,-6.73
2024-01-09T11:48:56.543Z,-6.68
2024-01-09T11:51:24.894Z,-6.76
2024-01-09T11:53:51.866Z,-6.71
2024-01-09T11:56:19.854Z,-6.73
2024-01-09T11:58:48.694Z,-6.70
2024-01-09T12:01:15.305Z,-6.56
2024-01-09T12:03:41.902Z,-6.45
2024-01-09T12:06:08.553Z,-6.49
2024-01-09T12:08:35.301Z,-6.47
2024-01-09T12:11:02.356Z,-6.42
2024-01-09T12:13:28.864Z,-6.39
2024-01-09T12:15:55.691Z,-6.26
2024-01-09T12:18:22.428Z,-6.25
2024-01-09T12:20:49.882Z,-6.19
2024-01-09T12:23:16.988Z,-6.23
2024-01-09T12:25:45.521Z,-6.19
2024-01-09T12:28:12.505Z,-6.24
2024-01-09T12:30:39.103Z,-6.17
2024-01-09T12:33:06.131Z,-6.08
2024-01-09T12:35:32.945Z,-6.03
2024-01-09T12:37:59.619Z,-5.99
2024-01-09T12:40:26.178Z,-5.92
2024-01-09T12:43:12.180Z,-5.85
2024-01-09T12:45:40.089Z,-5.79
2024-01-09T12:48:10.014Z,-5.83
2024-01-09T12:50:36.927Z,-5.88
2024-01-09T12:53:04.184Z,-5.88
2024-01-09T12:55:30.719Z,-5.88
2024-01-09T12:57:59.152Z,-5.84
2024-01-09T13:00:27.264Z,-5.82
2024-01-09T13:02:53.868Z,-5.78
2024-01-09T13:05:20.671Z,-5.80
2024-01-09T13:07:47.247Z,-5.77
2024-01-09T13:10:14.347Z,-5.73
2024-01-09T13:12:40.956Z,-5.69
2024-01-09T13:15:08.566Z,-5.65
2024-01-09T13:17:35.297Z,-5.71
2024-01-09T13:20:07.887Z,-5.70
2024-01-09T13:23:46.646Z,-5.70
2024-01-09T13:25:22.353Z,-5.71
2024-01-09T13:27:50.562Z,-5.69
2024-01-09T13:32:46.901Z,-5.68
2024-01-09T13:35:13.653Z,-5.69
2024-01-09T13:37:40.852Z,-5.67
2024-01-09T13:40:10.016Z,-5.66
2024-01-09T13:42:36.659Z,-5.70
2024-01-09T13:45:04.017Z,-5.71
2024-01-09T13:47:30.606Z,-5.73
2024-01-09T13:52:27.296Z,-5.80
2024-01-09T13:54:54.873Z,-5.79
2024-01-09T13:57:21.956Z,-5.78
2024-01-09T13:59:48.515Z,-5.80
2024-01-09T14:02:15.090Z,-5.85
2024-01-09T14:04:42.818Z,-5.88
2024-01-09T14:07:12.161Z,-5.92
2024-01-09T14:09:38.845Z,-5.96
2024-01-09T14:12:06.546Z,-5.99
2024-01-09T14:14:35.048Z,-6.02
2024-01-09T14:17:05.051Z,-6.05
2024-01-09T14:19:31.896Z,-6.10
2024-01-09T14:21:58.942Z,-6.14
2024-01-09T14:24:25.521Z,-6.16
2024-01-09T14:26:52.429Z,-6.20
2024-01-09T14:29:19.100Z,-6.25
2024-01-09T14:31:45.711Z,-6.29
2024-01-09T14:34:13.181Z,-6.32
2024-01-09T14:36:41.846Z,-6.37
2024-01-09T14:39:08.356Z,-6.41
2024-01-09T14:41:34.841Z,-6.45
2024-01-09T14:44:02.059Z,-6.50
2024-01-09T14:46:28.807Z,-6.54
2024-01-09T14:48:56.469Z,-6.60
2024-01-09T14:51:23.174Z,-6.66
2024-01-09T14:53:49.701Z,-6.72
2024-01-09T14:56:19.936Z,-6.79
2024-01-09T14:58:46.861Z,-6.85
2024-01-09T15:01:16.470Z,-6.93
2024-01-09T15:03:47.018Z,-7.01
2024-01-09T15:06:13.884Z,-7.11
2024-01-09T15:08:40.671Z,-7.15
2024-01-09T15:11:11.580Z,-7.23
2024-01-09T15:13:38.585Z,-7.31
2024-01-09T15:16:06.822Z,-7.40
2024-01-09T15:18:33.419Z,-7.47
2024-01-09T15:20:59.997Z,-7.51
2024-01-09T15:23:28.147Z,-7.58
2024-01-09T15:25:56.094Z,-7.66
2024-01-09T15:28:22.758Z,-7.75
2024-01-09T15:30:49.385Z,-7.84
2024-01-09T15:33:17.542Z,-7.89
2024-01-09T15:35:45.527Z,-7.98
2024-01-09T15:38:12.123Z,-8.04
2024-01-09T15:40:38.721Z,-8.14
2024-01-09T15:43:05.310Z,-8.21
2024-01-09T15:45:33.153Z,-8.28
2024-01-09T15:48:00.504Z,-8.38
2024-01-09T15:50:28.283Z,-8.45
2024-01-09T15:52:54.985Z,-8.56
2024-01-09T15:55:22.706Z,-8.60
2024-01-09T15:57:49.424Z,-8.64
2024-01-09T16:00:17.612Z,-8.68
2024-01-09T16:02:44.879Z,-8.73
2024-01-09T16:05:12.387Z,-8.77
2024-01-09T16:07:39.228Z,-8.79
2024-01-09T16:10:08.046Z,-8.82
2024-01-09T16:12:34.983Z,-8.85
2024-01-09T16:15:02.103Z,-8.88
2024-01-09T16:17:28.880Z,-8.90
2024-01-09T16:19:55.545Z,-8.94
2024-01-09T16:22:22.140Z,-8.98
2024-01-09T16:24:48.745Z,-9.03
2024-01-09T16:27:15.474Z,-9.08
2024-01-09T16:29:42.015Z,-9.11
2024-01-09T16:32:08.634Z,-9.15
2024-01-09T16:34:35.390Z,-9.18
2024-01-09T16:37:02.078Z,-9.22
2024-01-09T16:39:28.650Z,-9.25
2024-01-09T16:41:56.659Z,-9.29
2024-01-09T16:44:23.752Z,-9.33
2024-01-09T16:46:50.421Z,-9.36
2024-01-09T16:49:17.277Z,-9.39
2024-01-09T16:51:45.442Z,-9.44
2024-01-09T16:54:12.051Z,-9.48
2024-01-09T16:56:38.829Z,-9.50
2024-01-09T16:59:05.446Z,-9.54
2024-01-09T17:01:32.168Z,-9.57
2024-01-09T17:03:59.142Z,-9.68
2024-01-09T17:06:25.957Z,-9.76
2024-01-09T17:08:53.599Z,-9.84
2024-01-09T17:11:20.654Z,-9.88
2024-01-09T17:13:47.834Z,-9.91
2024-01-09T17:16:14.549Z,-9.91
2024-01-09T17:18:42.879Z,-9.88
2024-01-09T17:21:10.732Z,-9.78
2024-01-09T17:23:37.375Z,-9.77
2024-01-09T17:26:04.718Z,-9.76
2024-01-09T17:28:32.489Z,-9.81
2024-01-09T17:30:59.514Z,-9.86
2024-01-09T17:33:26.237Z,-9.95
2024-01-09T17:35:53.096Z,-9.97
2024-01-09T17:38:19.746Z,-9.99
2024-01-09T17:40:46.294Z,-9.96
2024-01-09T17:43:12.856Z,-9.99
2024-01-09T17:45:40.287Z,-10.03
2024-01-09T17:48:08.087Z,-10.02
2024-01-09T17:50:34.767Z,-10.07
2024-01-09T17:53:01.457Z,-10.11
2024-01-09T17:55:28.045Z,-10.17
2024-01-09T17:57:54.696Z,-10.11
2024-01-09T18:00:21.943Z,-10.06
2024-01-09T18:02:48.487Z,-10.05
2024-01-09T18:05:15.236Z,-10.07
2024-01-09T18:07:42.023Z,-10.11
2024-01-09T18:10:09.194Z,-10.13
2024-01-09T18:12:35.986Z,-10.16
2024-01-09T18:15:03.166Z,-10.18
2024-01-09T18:17:33.749Z,-10.21
2024-01-09T18:20:00.642Z,-10.22
2024-01-09T18:22:27.540Z,-10.24
2024-01-09T18:24:54.789Z,-10.25
2024-01-09T18:27:21.315Z,-10.21
2024-01-09T18:29:47.951Z,-10.19
2024-01-09T18:32:16.545Z,-10.21
2024-01-09T18:34:43.235Z,-10.19
2024-01-09T18:37:09.766Z,-10.19
2024-01-09T18:39:37.516Z,-10.22
2024-01-09T18:42:05.078Z,-10.28
2024-01-09T18:44:31.772Z,-10.33
2024-01-09T18:46:58.465Z,-10.42
2024-01-09T18:49:25.758Z,-10.47
2024-01-09T18:51:52.487Z,-10.52
2024-01-09T18:54:19.555Z,-10.52
2024-01-09T18:56:48.725Z,-10.62
2024-01-09T18:59:17.732Z,-10.54
2024-01-09T19:01:44.364Z,-10.52
2024-01-09T19:04:11.196Z,-10.52
2024-01-09T19:06:37.867Z,-10.55
2024-01-09T19:09:08.578Z,-10.58
2024-01-09T19:11:35.976Z,-10.59
2024-01-09T19:14:02.788Z,-10.56
2024-01-09T19:16:29.638Z,-10.56
2024-01-09T19:18:56.739Z,-10.54
2024-01-09T19:21:23.417Z,-10.55
2024-01-09T19:23:49.976Z,-10.46
2024-01-09T19:26:16.702Z,-10.44
2024-01-09T19:28:43.853Z,-10.47
2024-01-09T19:31:10.860Z,-10.42
2024-01-09T19:33:38.445Z,-10.37
2024-01-09T19:36:12.803Z,-10.37
2024-01-09T19:38:41.267Z,-10.32
2024-01-09T19:41:19.047Z,-10.36
2024-01-09T19:43:45.752Z,-10.41
2024-01-09T19:46:12.296Z,-10.42
2024-01-09T19:48:39.116Z,-10.44
2024-01-09T19:51:09.229Z,-10.43
2024-01-09T19:53:36.027Z,-10.46
2024-01-09T19:56:04.276Z,-10.50
2024-01-09T19:58:31.752Z,-10.51
2024-01-09T20:00:58.403Z,-10.54
2024-01-09T20:03:25.002Z,-10.49
2024-01-09T20:05:51.733Z,-10.53
2024-01-09T20:08:18.517Z,-10.55
2024-01-09T20:10:45.465Z,-10.58
2024-01-09T20:13:11.956Z,-10.63
2024-01-09T20:15:38.928Z,-10.68
2024-01-09T20:18:05.958Z,-10.72
2024-01-09T20:20:32.692Z,-10.74
2024-01-09T20:22:59.457Z,-10.79
2024-01-09T20:25:27.087Z,-10.80
2024-01-09T20:27:57.991Z,-10.84
2024-01-09T20:30:24.728Z,-10.95
2024-01-09T20:32:51.433Z,-10.87
2024-01-09T20:35:20.137Z,-10.81
2024-01-09T20:37:46.722Z,-10.82
2024-01-09T20:40:13.588Z,-10.86
2024-01-09T20:42:40.083Z,-10.86
2024-01-09T20:45:07.282Z,-10.91
2024-01-09T20:47:35.144Z,-10.93
2024-01-09T20:50:02.439Z,-10.95
2024-01-09T20:52:29.425Z,-10.99
2024-01-09T20:54:56.198Z,-11.05
2024-01-09T20:57:22.748Z,-11.08
2024-01-09T20:59:49.282Z,-11.15
2024-01-09T21:02:16.990Z,-11.18
2024-01-09T21:04:44.059Z,-11.21
2024-01-09T21:11:27.647Z,-11.23
